createdAt,value
2019-03-10T00:02:39.536Z,7.70
2019-03-10T00:05:43.733Z,7.70
2019-03-10T00:08:48.117Z,7.80
2019-03-10T00:11:52.374Z,7.80
2019-03-10T00:14:56.796Z,7.80
2019-03-10T00:18:01.129Z,7.80
2019-03-10T00:21:05.511Z,7.70
2019-03-10T00:24:09.786Z,7.80
2019-03-10T00:27:14.064Z,7.80
2019-03-10T00:30:18.520Z,7.70
2019-03-10T00:33:22.787Z,7.50
2019-03-10T00:36:27.140Z,7.40
2019-03-10T00:40:20.276Z,7.30
2019-03-10T00:43:55.828Z,7.20
2019-03-10T00:47:43.552Z,7.10
2019-03-10T00:51:12.288Z,7.00
2019-03-10T00:54:16.946Z,6.90
2019-03-10T00:57:21.277Z,6.90
2019-03-10T01:00:25.569Z,6.80
2019-03-10T01:03:29.906Z,6.70
2019-03-10T01:06:34.395Z,6.60
2019-03-10T01:09:39.501Z,6.60
2019-03-10T01:12:44.284Z,6.60
2019-03-10T01:15:49.024Z,6.50
2019-03-10T01:18:55.379Z,6.50
2019-03-10T01:22:01.049Z,6.50
2019-03-10T01:25:05.934Z,6.40
2019-03-10T01:28:10.201Z,6.40
2019-03-10T01:31:29.447Z,6.40
2019-03-10T01:34:54.615Z,6.40
2019-03-10T01:37:58.908Z,6.40
2019-03-10T01:41:03.156Z,6.40
2019-03-10T01:44:07.430Z,6.40
2019-03-10T01:47:11.610Z,6.40
2019-03-10T01:50:16.273Z,6.40
2019-03-10T01:53:25.488Z,6.30
2019-03-10T01:56:26.622Z,6.30
2019-03-10T01:59:30.946Z,6.30
2019-03-10T02:02:35.299Z,6.30
2019-03-10T02:05:39.554Z,6.30
2019-03-10T02:08:43.823Z,6.30
2019-03-10T02:11:47.995Z,6.30
2019-03-10T02:14:52.272Z,6.20
2019-03-10T02:17:56.453Z,6.20
2019-03-10T02:21:00.850Z,6.20
2019-03-10T02:24:05.244Z,6.20
2019-03-10T02:27:09.513Z,6.20
2019-03-10T02:30:16.046Z,6.10
2019-03-10T02:33:20.436Z,6.10
2019-03-10T02:36:24.666Z,6.10
2019-03-10T02:39:28.939Z,6.10
2019-03-10T02:42:33.341Z,6.10
2019-03-10T02:45:37.707Z,6.00
2019-03-10T02:48:41.961Z,6.10
2019-03-10T02:51:46.376Z,6.00
2019-03-10T02:54:50.716Z,6.00
2019-03-10T02:57:55.109Z,6.00
2019-03-10T03:00:59.299Z,6.00
2019-03-10T03:04:03.594Z,6.00
2019-03-10T03:07:07.932Z,5.90
2019-03-10T03:10:14.134Z,5.90
2019-03-10T03:13:18.387Z,5.90
2019-03-10T03:16:22.745Z,5.90
2019-03-10T03:19:27.003Z,5.80
2019-03-10T03:22:31.388Z,5.80
2019-03-10T03:25:35.654Z,5.70
2019-03-10T03:28:40.167Z,5.70
2019-03-10T03:31:44.506Z,5.70
2019-03-10T03:34:48.791Z,5.70
2019-03-10T03:37:53.124Z,5.70
2019-03-10T03:41:02.985Z,5.60
2019-03-10T03:44:07.252Z,5.60
2019-03-10T03:47:11.558Z,5.60
2019-03-10T03:50:15.803Z,5.50
2019-03-10T03:53:20.120Z,5.50
2019-03-10T03:56:24.364Z,5.60
2019-03-10T03:59:28.734Z,5.50
2019-03-10T04:02:40.877Z,5.50
2019-03-10T04:05:45.170Z,5.50
2019-03-10T04:08:49.496Z,5.50
2019-03-10T04:11:53.719Z,5.40
2019-03-10T04:14:57.971Z,5.40
2019-03-10T04:18:02.253Z,5.40
2019-03-10T04:21:06.513Z,5.30
2019-03-10T04:24:10.823Z,5.30
2019-03-10T04:27:15.172Z,5.30
2019-03-10T04:30:19.447Z,5.20
2019-03-10T04:33:23.673Z,5.20
2019-03-10T04:36:28.023Z,5.20
2019-03-10T04:39:32.283Z,5.20
2019-03-10T04:42:36.506Z,5.10
2019-03-10T04:45:40.819Z,5.10
2019-03-10T04:48:45.111Z,5.10
2019-03-10T04:51:49.442Z,5.10
2019-03-10T04:55:11.579Z,5.00
2019-03-10T04:58:16.500Z,5.00
2019-03-10T05:01:21.275Z,5.00
2019-03-10T05:04:25.532Z,5.00
2019-03-10T05:07:29.888Z,5.00
2019-03-10T05:10:34.223Z,4.90
2019-03-10T05:13:38.580Z,4.90
2019-03-10T05:16:42.823Z,4.90
2019-03-10T05:19:47.107Z,4.90
2019-03-10T05:22:51.362Z,4.90
2019-03-10T05:25:57.350Z,4.90
2019-03-10T05:29:01.662Z,4.80
2019-03-10T05:32:06.022Z,4.80
2019-03-10T05:35:10.492Z,4.80
2019-03-10T05:38:14.699Z,4.80
2019-03-10T05:41:18.945Z,4.80
2019-03-10T05:44:23.302Z,4.80
2019-03-10T05:47:27.548Z,4.70
2019-03-10T05:50:31.747Z,4.70
2019-03-10T05:53:35.943Z,4.70
2019-03-10T05:56:40.330Z,4.70
2019-03-10T05:59:44.669Z,4.70
2019-03-10T06:02:49.028Z,4.70
2019-03-10T06:05:53.195Z,4.70
2019-03-10T06:08:57.488Z,4.70
2019-03-10T06:12:01.743Z,4.80
2019-03-10T06:15:06.190Z,4.80
2019-03-10T06:18:13.985Z,4.80
2019-03-10T06:21:16.479Z,4.80
2019-03-10T06:24:20.807Z,4.90
2019-03-10T06:27:25.146Z,4.90
2019-03-10T06:30:29.619Z,5.00
2019-03-10T06:33:33.948Z,5.00
2019-03-10T06:36:38.218Z,5.10
2019-03-10T06:39:42.564Z,5.20
2019-03-10T06:42:46.739Z,5.20
2019-03-10T06:45:51.023Z,5.30
2019-03-10T06:48:55.347Z,5.30
2019-03-10T06:51:59.693Z,5.40
2019-03-10T06:55:04.035Z,5.50
2019-03-10T06:58:08.416Z,5.50
2019-03-10T07:01:12.686Z,5.60
2019-03-10T07:04:17.036Z,5.70
2019-03-10T07:07:21.302Z,5.70
2019-03-10T07:10:25.657Z,5.80
2019-03-10T07:13:29.987Z,5.90
2019-03-10T07:16:34.359Z,6.00
2019-03-10T07:19:38.727Z,6.10
2019-03-10T07:22:43.224Z,6.20
2019-03-10T07:25:49.100Z,6.30
2019-03-10T07:29:01.931Z,6.30
2019-03-10T07:32:28.019Z,6.40
2019-03-10T07:35:40.189Z,6.40
2019-03-10T07:38:59.252Z,6.50
2019-03-10T07:42:26.715Z,6.60
2019-03-10T07:45:52.785Z,6.60
2019-03-10T07:49:09.811Z,6.70
2019-03-10T07:52:30.736Z,6.80
2019-03-10T07:55:44.372Z,6.90
2019-03-10T07:59:06.648Z,7.00
2019-03-10T08:02:48.166Z,7.00
2019-03-10T08:06:09.995Z,7.10
2019-03-10T08:09:45.620Z,7.30
2019-03-10T08:13:11.744Z,7.30
2019-03-10T08:16:35.256Z,7.40
2019-03-10T08:19:58.567Z,7.50
2019-03-10T08:23:33.943Z,7.50
2019-03-10T08:26:54.528Z,7.60
2019-03-10T08:30:12.863Z,7.70
2019-03-10T08:33:35.187Z,7.70
2019-03-10T08:37:10.604Z,7.90
2019-03-10T08:40:34.803Z,8.00
2019-03-10T08:43:49.792Z,8.00
2019-03-10T08:47:13.167Z,8.10
2019-03-10T08:50:26.961Z,8.10
2019-03-10T08:53:52.293Z,8.20
2019-03-10T08:57:10.255Z,8.30
2019-03-10T09:00:45.799Z,8.40
2019-03-10T09:04:07.805Z,8.50
2019-03-10T09:07:36.569Z,8.60
2019-03-10T09:10:52.664Z,8.60
2019-03-10T09:14:15.992Z,8.70
2019-03-10T09:17:38.824Z,8.70
2019-03-10T09:21:04.721Z,8.80
2019-03-10T09:24:34.154Z,8.90
2019-03-10T09:28:06.570Z,8.90
2019-03-10T09:31:27.256Z,9.00
2019-03-10T09:34:56.813Z,9.10
2019-03-10T09:38:28.997Z,9.20
2019-03-10T09:41:40.719Z,9.30
2019-03-10T09:45:04.052Z,9.30
2019-03-10T09:48:39.533Z,9.40
2019-03-10T09:52:02.955Z,9.40
2019-03-10T09:55:35.519Z,9.50
2019-03-10T09:59:01.771Z,9.50
2019-03-10T10:02:25.773Z,9.60
2019-03-10T10:05:46.364Z,9.60
2019-03-10T10:09:01.800Z,9.60
2019-03-10T10:12:40.272Z,9.70
2019-03-10T10:16:03.660Z,9.80
2019-03-10T10:19:24.131Z,9.90
2019-03-10T10:22:59.596Z,10.00
2019-03-10T10:26:21.976Z,10.10
2019-03-10T10:29:48.375Z,10.30
2019-03-10T10:33:07.543Z,10.50
2019-03-10T10:36:22.953Z,10.60
2019-03-10T10:39:38.508Z,10.70
2019-03-10T10:43:04.886Z,10.80
2019-03-10T10:46:21.285Z,10.80
2019-03-10T10:49:44.736Z,10.90
2019-03-10T10:53:01.000Z,10.90
2019-03-10T10:56:33.432Z,11.00
2019-03-10T10:59:47.019Z,11.10
2019-03-10T11:03:09.443Z,11.10
2019-03-10T11:06:28.822Z,11.10
2019-03-10T11:09:59.117Z,11.20
2019-03-10T11:13:21.391Z,11.20
2019-03-10T11:16:45.732Z,11.20
2019-03-10T11:20:14.252Z,11.20
2019-03-10T11:23:24.899Z,11.20
2019-03-10T11:26:36.978Z,11.30
2019-03-10T11:29:52.784Z,11.20
2019-03-10T11:33:15.136Z,11.20
2019-03-10T11:36:45.983Z,11.20
2019-03-10T11:40:24.452Z,11.20
2019-03-10T11:43:46.954Z,11.10
2019-03-10T11:47:09.930Z,11.20
2019-03-10T11:50:45.904Z,11.10
2019-03-10T11:53:58.115Z,11.20
2019-03-10T11:57:24.586Z,11.20
2019-03-10T12:00:46.194Z,11.30
2019-03-10T12:04:10.508Z,11.30
2019-03-10T12:07:32.887Z,11.40
2019-03-10T12:10:37.970Z,11.40
2019-03-10T12:13:42.425Z,11.40
2019-03-10T12:16:46.798Z,11.40
2019-03-10T12:19:51.136Z,11.40
2019-03-10T12:22:56.664Z,11.30
2019-03-10T12:26:01.051Z,11.20
2019-03-10T12:29:05.557Z,11.10
2019-03-10T12:32:09.928Z,11.10
2019-03-10T12:35:14.275Z,11.00
2019-03-10T12:38:18.666Z,10.90
2019-03-10T12:41:23.053Z,10.80
2019-03-10T12:44:27.348Z,10.70
2019-03-10T12:47:31.637Z,10.70
2019-03-10T12:50:35.991Z,10.20
2019-03-10T12:53:40.331Z,9.40
2019-03-10T12:56:44.648Z,8.60
2019-03-10T12:59:48.918Z,8.30
2019-03-10T13:02:53.314Z,8.00
2019-03-10T13:05:57.646Z,7.70
2019-03-10T13:09:01.994Z,7.50
2019-03-10T13:12:06.392Z,7.40
2019-03-10T13:15:10.967Z,7.40
2019-03-10T13:18:15.148Z,7.30
2019-03-10T13:21:19.578Z,7.20
2019-03-10T13:24:23.974Z,7.20
2019-03-10T13:27:28.363Z,7.20
2019-03-10T13:30:32.722Z,7.30
2019-03-10T13:33:37.137Z,7.50
2019-03-10T13:36:41.402Z,7.60
2019-03-10T13:39:46.797Z,7.80
2019-03-10T13:42:51.112Z,7.90
2019-03-10T13:45:55.393Z,8.00
2019-03-10T13:48:59.675Z,8.10
2019-03-10T13:52:04.125Z,8.10
2019-03-10T13:55:08.834Z,8.10
2019-03-10T13:58:13.156Z,8.20
2019-03-10T14:01:17.508Z,8.20
2019-03-10T14:04:21.908Z,8.20
2019-03-10T14:07:26.362Z,8.20
2019-03-10T14:10:31.082Z,8.20
2019-03-10T14:13:35.680Z,8.20
2019-03-10T14:16:40.108Z,8.20
2019-03-10T14:19:44.431Z,8.20
2019-03-10T14:22:48.821Z,8.20
2019-03-10T14:25:53.277Z,8.20
2019-03-10T14:28:57.646Z,8.20
2019-03-10T14:32:02.026Z,8.20
2019-03-10T14:35:06.664Z,8.20
2019-03-10T14:38:10.968Z,8.20
2019-03-10T14:41:15.366Z,8.30
2019-03-10T14:44:19.788Z,8.30
2019-03-10T14:47:24.255Z,8.30
2019-03-10T14:50:28.559Z,8.30
2019-03-10T14:53:33.243Z,8.30
2019-03-10T14:56:40.420Z,8.30
2019-03-10T14:59:44.842Z,8.30
2019-03-10T15:02:49.311Z,8.30
2019-03-10T15:05:56.551Z,8.30
2019-03-10T15:09:01.040Z,8.30
2019-03-10T15:12:05.555Z,8.30
2019-03-10T15:15:21.295Z,8.30
2019-03-10T15:18:17.274Z,8.30
2019-03-10T15:21:21.798Z,8.30
2019-03-10T15:24:26.196Z,8.30
2019-03-10T15:27:30.583Z,8.30
2019-03-10T15:30:34.917Z,8.30
2019-03-10T15:33:39.426Z,8.30
2019-03-10T15:36:43.897Z,8.20
2019-03-10T15:39:48.250Z,8.20
2019-03-10T15:42:52.689Z,8.20
2019-03-10T15:45:57.219Z,8.20
2019-03-10T15:49:01.614Z,8.20
2019-03-10T15:52:07.474Z,8.20
2019-03-10T15:55:12.101Z,8.20
2019-03-10T15:58:16.361Z,8.10
2019-03-10T16:01:20.586Z,8.10
2019-03-10T16:04:24.786Z,8.10
2019-03-10T16:07:29.201Z,8.10
2019-03-10T16:10:33.692Z,8.10
2019-03-10T16:13:38.667Z,8.10
2019-03-10T16:16:43.089Z,8.10
2019-03-10T16:19:47.545Z,8.10
2019-03-10T16:22:51.919Z,8.00
2019-03-10T16:25:56.290Z,8.10
2019-03-10T16:29:00.744Z,8.00
2019-03-10T16:32:05.304Z,8.00
2019-03-10T16:35:10.303Z,8.00
2019-03-10T16:38:14.695Z,8.00
2019-03-10T16:41:19.871Z,8.00
2019-03-10T16:44:24.308Z,8.00
2019-03-10T16:47:28.654Z,8.00
2019-03-10T16:50:32.975Z,7.90
2019-03-10T16:53:37.349Z,7.90
2019-03-10T16:56:41.740Z,7.90
2019-03-10T16:59:46.102Z,7.90
2019-03-10T17:02:50.836Z,7.90
2019-03-10T17:05:55.105Z,7.80
2019-03-10T17:08:59.430Z,7.80
2019-03-10T17:12:03.884Z,7.80
2019-03-10T17:15:10.403Z,7.80
2019-03-10T17:18:14.789Z,7.70
2019-03-10T17:21:19.267Z,7.70
2019-03-10T17:24:23.633Z,7.70
2019-03-10T17:27:28.272Z,7.70
2019-03-10T17:30:34.477Z,7.70
2019-03-10T17:33:38.882Z,7.60
2019-03-10T17:36:43.244Z,7.60
2019-03-10T17:39:48.101Z,7.60
2019-03-10T17:42:52.873Z,7.60
2019-03-10T17:45:57.294Z,7.60
2019-03-10T17:49:01.702Z,7.60
2019-03-10T17:52:14.331Z,7.60
2019-03-10T17:55:14.736Z,7.60
2019-03-10T17:58:20.432Z,7.60
2019-03-10T18:01:26.659Z,7.60
2019-03-10T18:04:31.073Z,7.60
2019-03-10T18:07:35.428Z,7.60
2019-03-10T18:10:39.820Z,7.50
2019-03-10T18:13:44.211Z,7.50
2019-03-10T18:16:48.612Z,7.50
2019-03-10T18:19:57.412Z,7.50
2019-03-10T18:23:01.833Z,7.50
2019-03-10T18:26:06.221Z,7.50
2019-03-10T18:29:12.697Z,7.50
2019-03-10T18:32:20.299Z,7.40
2019-03-10T18:35:24.690Z,7.40
2019-03-10T18:38:29.096Z,7.40
2019-03-10T18:41:33.830Z,7.40
2019-03-10T18:44:38.215Z,7.30
2019-03-10T18:47:42.642Z,7.30
2019-03-10T18:50:47.212Z,7.30
2019-03-10T18:53:52.524Z,7.30
2019-03-10T18:56:56.796Z,7.30
2019-03-10T19:00:01.108Z,7.30
2019-03-10T19:03:05.499Z,7.30
2019-03-10T19:06:10.012Z,7.40
2019-03-10T19:09:16.486Z,7.40
2019-03-10T19:12:21.109Z,7.40
2019-03-10T19:15:25.526Z,7.40
2019-03-10T19:18:30.016Z,7.40
2019-03-10T19:21:35.747Z,7.50
2019-03-10T19:24:40.128Z,7.50
2019-03-10T19:27:44.614Z,7.50
2019-03-10T19:30:48.991Z,7.60
2019-03-10T19:33:55.670Z,7.60
2019-03-10T19:37:00.111Z,7.70
2019-03-10T19:40:05.230Z,7.70
2019-03-10T19:43:09.698Z,7.80
2019-03-10T19:46:14.093Z,7.80
2019-03-10T19:49:18.549Z,7.90
2019-03-10T19:52:22.934Z,7.90
2019-03-10T19:55:28.730Z,7.90
2019-03-10T19:58:35.919Z,8.00
2019-03-10T20:01:40.315Z,8.00
2019-03-10T20:04:44.761Z,8.00
2019-03-10T20:07:49.130Z,8.00
2019-03-10T20:10:53.491Z,8.00
2019-03-10T20:13:57.870Z,8.10
2019-03-10T20:17:02.303Z,8.10
2019-03-10T20:20:08.228Z,8.10
2019-03-10T20:23:12.650Z,8.10
2019-03-10T20:26:16.960Z,8.20
2019-03-10T20:29:21.335Z,8.20
2019-03-10T20:32:25.724Z,8.20
2019-03-10T20:35:29.987Z,8.20
2019-03-10T20:38:34.355Z,8.20
2019-03-10T20:41:38.640Z,8.20
2019-03-10T20:44:43.010Z,8.20
2019-03-10T20:47:47.773Z,8.20
2019-03-10T20:50:52.163Z,8.20
2019-03-10T20:53:56.400Z,8.30
2019-03-10T20:57:00.714Z,8.30
2019-03-10T21:00:06.257Z,8.30
2019-03-10T21:03:10.724Z,8.30
2019-03-10T21:06:15.024Z,8.30
2019-03-10T21:09:19.335Z,8.30
2019-03-10T21:12:23.604Z,8.30
2019-03-10T21:15:27.836Z,8.30
2019-03-10T21:18:32.199Z,8.30
2019-03-10T21:21:36.603Z,8.30
2019-03-10T21:24:41.031Z,8.30
2019-03-10T21:27:45.527Z,8.40
2019-03-10T21:30:49.887Z,8.30
2019-03-10T21:33:54.370Z,8.30
2019-03-10T21:36:58.771Z,8.40
2019-03-10T21:40:03.149Z,8.40
2019-03-10T21:43:07.444Z,8.30
2019-03-10T21:46:11.862Z,8.30
2019-03-10T21:49:16.458Z,8.30
2019-03-10T21:52:20.870Z,8.30
2019-03-10T21:55:26.184Z,8.30
2019-03-10T21:58:30.640Z,8.30
2019-03-10T22:01:34.952Z,8.30
2019-03-10T22:04:39.259Z,8.30
2019-03-10T22:07:43.550Z,8.20
2019-03-10T22:10:48.002Z,8.20
2019-03-10T22:13:52.491Z,8.20
2019-03-10T22:16:58.453Z,8.10
2019-03-10T22:20:02.818Z,8.10
2019-03-10T22:23:07.207Z,8.10
2019-03-10T22:26:11.663Z,8.10
2019-03-10T22:29:16.046Z,8.10
2019-03-10T22:32:20.380Z,8.10
2019-03-10T22:35:24.770Z,8.10
2019-03-10T22:38:29.083Z,8.10
2019-03-10T22:41:33.461Z,8.10
2019-03-10T22:44:37.681Z,8.10
2019-03-10T22:47:42.120Z,8.10
2019-03-10T22:50:46.390Z,8.10
2019-03-10T22:53:50.803Z,8.20
2019-03-10T22:56:55.155Z,8.20
2019-03-10T22:59:59.450Z,8.20
2019-03-10T23:03:04.040Z,8.20
2019-03-10T23:06:08.376Z,8.30
2019-03-10T23:09:12.831Z,8.30
2019-03-10T23:12:17.108Z,8.30
2019-03-10T23:15:21.359Z,8.30
2019-03-10T23:18:25.713Z,8.30
2019-03-10T23:21:29.928Z,8.30
2019-03-10T23:24:34.238Z,8.30
2019-03-10T23:27:38.584Z,8.30
2019-03-10T23:30:42.859Z,8.30
2019-03-10T23:33:47.218Z,8.30
2019-03-10T23:36:51.625Z,8.30
2019-03-10T23:39:55.979Z,8.20
2019-03-10T23:43:00.387Z,8.20
2019-03-10T23:46:04.708Z,8.20
2019-03-10T23:49:08.922Z,8.20
2019-03-10T23:52:13.261Z,8.20
2019-03-10T23:55:17.677Z,8.20
2019-03-10T23:58:22.091Z,8.30
